Madison, WI (53711)

12:14 PM CDT on August 02, 2015 (GMT -0500)
Tower Hill | | Change Station
CLOSE
Current Station
Personal Weather Station
Location: Fitchburg, WI
Elevation: 925 ft
Nearby Weather Stations
Active Advisory: Special Statement

Elev 925 ft 43.01 °N, 89.43 °W | Updated 9 minutes ago

Partly Cloudy
Partly Cloudy
84.9 °F
Feels Like 90 °F
N
3.7
Wind Variable Wind from West

Today
High -- | Low -- °F
--% Chance of Precip.
Yesterday
High -- | Low -- °F
Precip. -- in
5:49 AM 8:17 PM
Waning Gibbous, 93% visible
Pressure 29.73 in
Visibility 10.0 miles
Clouds Clear
Heat Index 90 °F
Dew Point 70 °F
Humidity 62%
Rainfall 0.00 in
Snow Depth Not available.
UV 10 out of 12
Pollen 8.00 out of 12
Air Quality Not available.
Flu Activity Not available.
METAR KC29 021655Z AUTO 24014G19KT 10SM CLR 31/19 A2973 RMK AO1 T03050188

More Conditions Fewer Conditions

Pressure 29.73 in
Visibility 10.0 miles
Clouds Clear
Heat Index 90 °F
Dew Point 70 °F
Humidity 62%
Rainfall 0.00 in
Snow Depth Not available.
UV 10 out of 12
Pollen 8.00 out of 12
Air Quality Not available.
Flu Activity Not available.
METAR KC29 021655Z AUTO 24014G19KT 10SM CLR 31/19 A2973 RMK AO1 T03050188

More Conditions Fewer Conditions

10-Day Weather Forecast

×

Almanac

Astronomy

Aug. 02, 2015 Rise Set
Actual Time
Civil Twilight
Nautical Twilight
Astronomical Twilight
Moon
Length of Visible Light
Length of Day
Tomorrow will be .
, % of the Moon is Illuminated

Today's Extremes

State Highs State Lows

Community

WunderPhotos

Upload Photos

1,843,318 photos uploaded!

WunderBlogs® & News

Nearby

Air Quality

  Air Quality AQ Index Pollutant
Not available.

Snow Depth

Station Depth Elevation

Earthquake Activity

City Distance Mag. Time & Date
Minimum magnitude displayed is 2.5.

Coastal Water Temperatures

Place Temperature

Stations

Nearby Weather Stations

Station Location Temp. Windchill Dew Point Humidity Wind Precip. Elev Updated Type
                   
Special Statement
Statement as of 3:01 AM CDT on August 02, 2015

... Gusty southwest winds this afternoon...

Southwest winds will increase to 20 to 30 mph this afternoon
ahead of an approaching cold front. Gusts of 30 to 40 mph are
likely. These gusts may cause driving to be difficult at
times... especially for higher profile vehicles.
Additionally... loose objects such as trash cans may be blown
around.

Ddv

301 am CDT sun Aug 2 2015

... Gusty southwest winds this afternoon...

Southwest winds will increase to 20 to 30 mph this afternoon
ahead of an approaching cold front. Gusts of 30 to 40 mph are
likely. These gusts may cause driving to be difficult at
times... especially for higher profile vehicles.
Additionally... loose objects such as trash cans may be blown
around.

Ddv